sensor_id;sensor_type;location;lat;lon;timestamp;P1;durP1;ratioP1;P2;durP2;ratioP2
61903;SDS011;47857;52.270;6.804;2024-03-06T00:02:11;68.50;;;40.80;;
61903;SDS011;47857;52.270;6.804;2024-03-06T00:04:37;70.93;;;40.08;;
61903;SDS011;47857;52.270;6.804;2024-03-06T00:07:03;68.63;;;40.50;;
61903;SDS011;47857;52.270;6.804;2024-03-06T00:09:28;67.72;;;39.72;;
61903;SDS011;47857;52.270;6.804;2024-03-06T00:11:54;72.18;;;40.03;;
61903;SDS011;47857;52.270;6.804;2024-03-06T00:14:20;68.57;;;40.85;;
61903;SDS011;47857;52.270;6.804;2024-03-06T00:16:49;77.97;;;42.95;;
61903;SDS011;47857;52.270;6.804;2024-03-06T00:19:15;79.47;;;43.28;;
61903;SDS011;47857;52.270;6.804;2024-03-06T00:21:44;76.97;;;43.28;;
61903;SDS011;47857;52.270;6.804;2024-03-06T00:24:13;83.90;;;45.97;;
61903;SDS011;47857;52.270;6.804;2024-03-06T00:26:43;77.75;;;44.38;;
61903;SDS011;47857;52.270;6.804;2024-03-06T00:29:09;85.25;;;45.75;;
61903;SDS011;47857;52.270;6.804;2024-03-06T00:31:35;86.70;;;45.35;;
61903;SDS011;47857;52.270;6.804;2024-03-06T00:34:01;81.82;;;44.38;;
61903;SDS011;47857;52.270;6.804;2024-03-06T00:36:26;81.28;;;44.83;;
61903;SDS011;47857;52.270;6.804;2024-03-06T00:38:52;84.85;;;45.28;;
61903;SDS011;47857;52.270;6.804;2024-03-06T00:41:17;83.75;;;43.20;;
61903;SDS011;47857;52.270;6.804;2024-03-06T00:43:43;91.00;;;46.22;;
61903;SDS011;47857;52.270;6.804;2024-03-06T00:46:08;84.25;;;46.35;;
61903;SDS011;47857;52.270;6.804;2024-03-06T00:48:34;84.82;;;45.22;;
61903;SDS011;47857;52.270;6.804;2024-03-06T00:51:00;91.60;;;47.92;;
61903;SDS011;47857;52.270;6.804;2024-03-06T00:53:25;91.05;;;46.75;;
61903;SDS011;47857;52.270;6.804;2024-03-06T00:55:51;88.28;;;48.00;;
61903;SDS011;47857;52.270;6.804;2024-03-06T00:58:16;92.78;;;47.50;;
61903;SDS011;47857;52.270;6.804;2024-03-06T01:00:42;83.55;;;45.72;;
61903;SDS011;47857;52.270;6.804;2024-03-06T01:03:07;91.15;;;46.42;;
61903;SDS011;47857;52.270;6.804;2024-03-06T01:05:33;91.90;;;46.33;;
61903;SDS011;47857;52.270;6.804;2024-03-06T01:07:58;88.00;;;46.58;;
61903;SDS011;47857;52.270;6.804;2024-03-06T01:10:24;91.50;;;46.75;;
61903;SDS011;47857;52.270;6.804;2024-03-06T01:12:50;99.28;;;47.75;;
61903;SDS011;47857;52.270;6.804;2024-03-06T01:15:15;93.60;;;48.33;;
61903;SDS011;47857;52.270;6.804;2024-03-06T01:17:41;100.68;;;48.50;;
61903;SDS011;47857;52.270;6.804;2024-03-06T01:20:07;89.55;;;45.70;;
61903;SDS011;47857;52.270;6.804;2024-03-06T01:22:33;85.45;;;45.40;;
61903;SDS011;47857;52.270;6.804;2024-03-06T01:24:59;93.20;;;47.65;;
61903;SDS011;47857;52.270;6.804;2024-03-06T01:27:25;96.65;;;48.85;;
61903;SDS011;47857;52.270;6.804;2024-03-06T01:29:51;99.28;;;48.10;;
61903;SDS011;47857;52.270;6.804;2024-03-06T01:32:17;103.50;;;49.78;;
61903;SDS011;47857;52.270;6.804;2024-03-06T01:34:42;99.43;;;47.78;;
61903;SDS011;47857;52.270;6.804;2024-03-06T01:37:08;99.10;;;47.75;;
61903;SDS011;47857;52.270;6.804;2024-03-06T01:39:34;93.95;;;48.58;;
61903;SDS011;47857;52.270;6.804;2024-03-06T01:42:00;90.20;;;46.83;;
61903;SDS011;47857;52.270;6.804;2024-03-06T01:44:26;93.75;;;47.58;;
61903;SDS011;47857;52.270;6.804;2024-03-06T01:46:52;94.43;;;49.88;;
61903;SDS011;47857;52.270;6.804;2024-03-06T01:49:18;95.78;;;48.53;;
61903;SDS011;47857;52.270;6.804;2024-03-06T01:51:44;98.40;;;46.05;;
61903;SDS011;47857;52.270;6.804;2024-03-06T01:54:14;94.88;;;47.75;;
61903;SDS011;47857;52.270;6.804;2024-03-06T01:56:43;89.45;;;46.60;;
61903;SDS011;47857;52.270;6.804;2024-03-06T01:59:10;94.97;;;47.78;;
61903;SDS011;47857;52.270;6.804;2024-03-06T02:01:39;99.43;;;48.67;;
61903;SDS011;47857;52.270;6.804;2024-03-06T02:04:05;101.30;;;47.17;;
61903;SDS011;47857;52.270;6.804;2024-03-06T02:06:40;98.68;;;49.85;;
61903;SDS011;47857;52.270;6.804;2024-03-06T02:09:06;95.10;;;48.33;;
61903;SDS011;47857;52.270;6.804;2024-03-06T02:11:32;91.55;;;47.58;;
61903;SDS011;47857;52.270;6.804;2024-03-06T02:13:58;94.72;;;47.50;;
61903;SDS011;47857;52.270;6.804;2024-03-06T02:16:23;96.88;;;47.83;;
61903;SDS011;47857;52.270;6.804;2024-03-06T02:18:55;92.15;;;47.88;;
61903;SDS011;47857;52.270;6.804;2024-03-06T02:21:22;88.57;;;47.13;;
61903;SDS011;47857;52.270;6.804;2024-03-06T02:23:48;98.40;;;48.70;;
61903;SDS011;47857;52.270;6.804;2024-03-06T02:26:16;95.05;;;48.13;;
61903;SDS011;47857;52.270;6.804;2024-03-06T02:31:15;100.18;;;48.22;;
61903;SDS011;47857;52.270;6.804;2024-03-06T02:33:41;99.85;;;49.15;;
61903;SDS011;47857;52.270;6.804;2024-03-06T02:36:07;106.47;;;51.17;;
61903;SDS011;47857;52.270;6.804;2024-03-06T02:38:33;97.78;;;50.10;;
61903;SDS011;47857;52.270;6.804;2024-03-06T02:40:59;107.95;;;50.95;;
61903;SDS011;47857;52.270;6.804;2024-03-06T02:43:25;98.10;;;50.40;;
61903;SDS011;47857;52.270;6.804;2024-03-06T02:45:51;105.80;;;51.65;;
61903;SDS011;47857;52.270;6.804;2024-03-06T02:48:16;114.70;;;52.15;;
61903;SDS011;47857;52.270;6.804;2024-03-06T02:50:42;105.30;;;50.33;;
61903;SDS011;47857;52.270;6.804;2024-03-06T02:53:07;115.55;;;51.45;;
61903;SDS011;47857;52.270;6.804;2024-03-06T02:55:32;116.03;;;53.17;;
61903;SDS011;47857;52.270;6.804;2024-03-06T02:58:01;114.03;;;52.78;;
61903;SDS011;47857;52.270;6.804;2024-03-06T03:00:29;106.28;;;51.63;;
61903;SDS011;47857;52.270;6.804;2024-03-06T03:02:56;111.70;;;52.10;;
61903;SDS011;47857;52.270;6.804;2024-03-06T03:05:22;112.13;;;52.58;;
61903;SDS011;47857;52.270;6.804;2024-03-06T03:07:49;110.93;;;52.38;;
61903;SDS011;47857;52.270;6.804;2024-03-06T03:10:15;112.65;;;52.05;;
61903;SDS011;47857;52.270;6.804;2024-03-06T03:12:40;120.15;;;54.92;;
61903;SDS011;47857;52.270;6.804;2024-03-06T03:15:06;114.40;;;52.92;;
61903;SDS011;47857;52.270;6.804;2024-03-06T03:17:32;116.65;;;53.08;;
61903;SDS011;47857;52.270;6.804;2024-03-06T03:19:59;116.00;;;52.88;;
61903;SDS011;47857;52.270;6.804;2024-03-06T03:22:25;113.50;;;52.50;;
61903;SDS011;47857;52.270;6.804;2024-03-06T03:24:50;115.75;;;54.15;;
61903;SDS011;47857;52.270;6.804;2024-03-06T03:27:16;108.68;;;52.80;;
61903;SDS011;47857;52.270;6.804;2024-03-06T03:29:41;114.15;;;52.05;;
61903;SDS011;47857;52.270;6.804;2024-03-06T03:32:07;103.05;;;50.35;;
61903;SDS011;47857;52.270;6.804;2024-03-06T03:34:33;108.35;;;52.20;;
61903;SDS011;47857;52.270;6.804;2024-03-06T03:36:59;112.00;;;52.25;;
61903;SDS011;47857;52.270;6.804;2024-03-06T03:39:25;117.25;;;51.83;;
61903;SDS011;47857;52.270;6.804;2024-03-06T03:41:52;114.60;;;51.97;;
61903;SDS011;47857;52.270;6.804;2024-03-06T03:44:18;110.97;;;52.45;;
61903;SDS011;47857;52.270;6.804;2024-03-06T03:46:46;107.05;;;51.90;;
61903;SDS011;47857;52.270;6.804;2024-03-06T03:49:12;119.30;;;52.28;;
61903;SDS011;47857;52.270;6.804;2024-03-06T03:51:38;106.75;;;51.00;;
61903;SDS011;47857;52.270;6.804;2024-03-06T03:54:04;107.45;;;51.15;;
61903;SDS011;47857;52.270;6.804;2024-03-06T03:56:30;114.65;;;52.72;;
61903;SDS011;47857;52.270;6.804;2024-03-06T03:58:56;108.22;;;50.60;;
61903;SDS011;47857;52.270;6.804;2024-03-06T04:01:22;109.25;;;50.95;;
61903;SDS011;47857;52.270;6.804;2024-03-06T04:03:48;100.43;;;49.20;;
61903;SDS011;47857;52.270;6.804;2024-03-06T04:06:14;113.20;;;52.10;;
61903;SDS011;47857;52.270;6.804;2024-03-06T04:08:39;103.57;;;48.25;;
61903;SDS011;47857;52.270;6.804;2024-03-06T04:11:06;102.22;;;50.00;;
61903;SDS011;47857;52.270;6.804;2024-03-06T04:13:34;98.80;;;49.58;;
61903;SDS011;47857;52.270;6.804;2024-03-06T04:16:01;100.22;;;49.67;;
61903;SDS011;47857;52.270;6.804;2024-03-06T04:18:27;96.57;;;47.55;;
61903;SDS011;47857;52.270;6.804;2024-03-06T04:20:54;104.97;;;49.20;;
61903;SDS011;47857;52.270;6.804;2024-03-06T04:23:19;99.38;;;48.15;;
61903;SDS011;47857;52.270;6.804;2024-03-06T04:25:45;99.35;;;47.88;;
61903;SDS011;47857;52.270;6.804;2024-03-06T04:28:10;94.88;;;46.35;;
61903;SDS011;47857;52.270;6.804;2024-03-06T04:30:36;103.35;;;48.90;;
61903;SDS011;47857;52.270;6.804;2024-03-06T04:33:01;102.60;;;49.45;;
61903;SDS011;47857;52.270;6.804;2024-03-06T04:35:27;101.30;;;48.58;;
61903;SDS011;47857;52.270;6.804;2024-03-06T04:37:52;97.22;;;48.45;;
61903;SDS011;47857;52.270;6.804;2024-03-06T04:40:18;103.85;;;47.95;;
61903;SDS011;47857;52.270;6.804;2024-03-06T04:42:46;105.05;;;47.63;;
61903;SDS011;47857;52.270;6.804;2024-03-06T04:45:14;102.53;;;48.85;;
61903;SDS011;47857;52.270;6.804;2024-03-06T04:47:40;97.90;;;48.53;;
61903;SDS011;47857;52.270;6.804;2024-03-06T04:50:09;98.43;;;48.25;;
61903;SDS011;47857;52.270;6.804;2024-03-06T04:52:39;97.32;;;47.10;;
61903;SDS011;47857;52.270;6.804;2024-03-06T04:55:05;99.65;;;47.38;;
61903;SDS011;47857;52.270;6.804;2024-03-06T04:57:31;108.68;;;49.53;;
61903;SDS011;47857;52.270;6.804;2024-03-06T04:59:57;100.47;;;49.13;;
61903;SDS011;47857;52.270;6.804;2024-03-06T05:02:23;99.38;;;49.30;;
61903;SDS011;47857;52.270;6.804;2024-03-06T05:04:50;108.95;;;48.78;;
61903;SDS011;47857;52.270;6.804;2024-03-06T05:07:16;110.00;;;49.15;;
61903;SDS011;47857;52.270;6.804;2024-03-06T05:09:42;105.00;;;48.67;;
61903;SDS011;47857;52.270;6.804;2024-03-06T05:12:07;101.80;;;49.35;;
61903;SDS011;47857;52.270;6.804;2024-03-06T05:14:33;104.57;;;47.53;;
61903;SDS011;47857;52.270;6.804;2024-03-06T05:16:59;109.82;;;48.38;;
61903;SDS011;47857;52.270;6.804;2024-03-06T05:19:24;103.47;;;47.30;;
61903;SDS011;47857;52.270;6.804;2024-03-06T05:21:57;96.85;;;47.60;;
61903;SDS011;47857;52.270;6.804;2024-03-06T05:24:23;105.95;;;48.15;;
61903;SDS011;47857;52.270;6.804;2024-03-06T05:26:49;104.75;;;47.85;;
61903;SDS011;47857;52.270;6.804;2024-03-06T05:29:14;100.32;;;48.03;;
61903;SDS011;47857;52.270;6.804;2024-03-06T05:31:40;98.78;;;46.72;;
61903;SDS011;47857;52.270;6.804;2024-03-06T05:34:06;102.07;;;46.70;;
61903;SDS011;47857;52.270;6.804;2024-03-06T05:36:31;101.85;;;46.88;;
61903;SDS011;47857;52.270;6.804;2024-03-06T05:38:57;109.07;;;48.28;;
61903;SDS011;47857;52.270;6.804;2024-03-06T05:41:22;104.88;;;46.90;;
61903;SDS011;47857;52.270;6.804;2024-03-06T05:43:48;104.18;;;45.72;;
61903;SDS011;47857;52.270;6.804;2024-03-06T05:46:13;92.70;;;45.25;;
61903;SDS011;47857;52.270;6.804;2024-03-06T05:48:40;105.45;;;46.03;;
61903;SDS011;47857;52.270;6.804;2024-03-06T05:51:06;96.55;;;45.90;;
61903;SDS011;47857;52.270;6.804;2024-03-06T05:53:38;102.70;;;47.38;;
61903;SDS011;47857;52.270;6.804;2024-03-06T05:56:06;103.93;;;46.92;;
61903;SDS011;47857;52.270;6.804;2024-03-06T05:58:31;96.90;;;45.53;;
61903;SDS011;47857;52.270;6.804;2024-03-06T06:00:57;97.47;;;45.83;;
61903;SDS011;47857;52.270;6.804;2024-03-06T06:03:23;96.85;;;46.67;;
61903;SDS011;47857;52.270;6.804;2024-03-06T06:05:48;101.40;;;46.20;;
61903;SDS011;47857;52.270;6.804;2024-03-06T06:08:14;97.88;;;45.92;;
61903;SDS011;47857;52.270;6.804;2024-03-06T06:10:39;86.03;;;44.05;;
61903;SDS011;47857;52.270;6.804;2024-03-06T06:13:05;90.15;;;44.30;;
61903;SDS011;47857;52.270;6.804;2024-03-06T06:15:31;99.15;;;46.00;;
61903;SDS011;47857;52.270;6.804;2024-03-06T06:17:56;89.97;;;44.08;;
61903;SDS011;47857;52.270;6.804;2024-03-06T06:20:22;104.13;;;46.20;;
61903;SDS011;47857;52.270;6.804;2024-03-06T06:22:49;91.35;;;43.92;;
61903;SDS011;47857;52.270;6.804;2024-03-06T06:25:15;94.80;;;45.42;;
61903;SDS011;47857;52.270;6.804;2024-03-06T06:27:41;99.28;;;46.30;;
61903;SDS011;47857;52.270;6.804;2024-03-06T06:30:07;94.60;;;45.38;;
61903;SDS011;47857;52.270;6.804;2024-03-06T06:32:37;92.90;;;44.60;;
61903;SDS011;47857;52.270;6.804;2024-03-06T06:35:04;92.65;;;44.60;;
61903;SDS011;47857;52.270;6.804;2024-03-06T06:37:30;93.18;;;45.13;;
61903;SDS011;47857;52.270;6.804;2024-03-06T06:39:56;92.55;;;44.47;;
61903;SDS011;47857;52.270;6.804;2024-03-06T06:42:21;91.63;;;45.25;;
61903;SDS011;47857;52.270;6.804;2024-03-06T06:44:47;99.75;;;47.08;;
61903;SDS011;47857;52.270;6.804;2024-03-06T06:47:12;95.70;;;45.30;;
61903;SDS011;47857;52.270;6.804;2024-03-06T06:49:38;92.60;;;45.20;;
61903;SDS011;47857;52.270;6.804;2024-03-06T06:52:03;90.93;;;45.35;;
61903;SDS011;47857;52.270;6.804;2024-03-06T06:54:29;88.85;;;43.30;;
61903;SDS011;47857;52.270;6.804;2024-03-06T06:56:54;87.57;;;44.88;;
61903;SDS011;47857;52.270;6.804;2024-03-06T06:59:20;89.32;;;44.67;;
61903;SDS011;47857;52.270;6.804;2024-03-06T07:01:47;89.22;;;44.13;;
61903;SDS011;47857;52.270;6.804;2024-03-06T07:04:13;89.28;;;44.83;;
61903;SDS011;47857;52.270;6.804;2024-03-06T07:06:41;92.57;;;44.75;;
61903;SDS011;47857;52.270;6.804;2024-03-06T07:09:07;84.72;;;44.35;;
61903;SDS011;47857;52.270;6.804;2024-03-06T07:11:34;90.95;;;45.53;;
61903;SDS011;47857;52.270;6.804;2024-03-06T07:14:00;91.30;;;44.05;;
61903;SDS011;47857;52.270;6.804;2024-03-06T07:16:25;90.40;;;46.55;;
61903;SDS011;47857;52.270;6.804;2024-03-06T07:18:51;91.78;;;45.97;;
61903;SDS011;47857;52.270;6.804;2024-03-06T07:21:16;101.95;;;46.30;;
61903;SDS011;47857;52.270;6.804;2024-03-06T07:23:43;95.10;;;45.70;;
61903;SDS011;47857;52.270;6.804;2024-03-06T07:26:09;102.32;;;46.47;;
61903;SDS011;47857;52.270;6.804;2024-03-06T07:28:35;106.90;;;48.13;;
61903;SDS011;47857;52.270;6.804;2024-03-06T07:31:02;97.80;;;45.97;;
61903;SDS011;47857;52.270;6.804;2024-03-06T07:33:28;95.00;;;44.67;;
61903;SDS011;47857;52.270;6.804;2024-03-06T07:35:53;98.03;;;45.40;;
61903;SDS011;47857;52.270;6.804;2024-03-06T07:38:19;93.63;;;45.42;;
61903;SDS011;47857;52.270;6.804;2024-03-06T07:40:46;91.20;;;45.67;;
61903;SDS011;47857;52.270;6.804;2024-03-06T07:43:11;107.75;;;49.13;;
61903;SDS011;47857;52.270;6.804;2024-03-06T07:45:37;102.55;;;48.22;;
61903;SDS011;47857;52.270;6.804;2024-03-06T07:48:02;94.75;;;45.28;;
61903;SDS011;47857;52.270;6.804;2024-03-06T07:50:29;87.72;;;43.20;;
61903;SDS011;47857;52.270;6.804;2024-03-06T07:52:54;97.70;;;45.00;;
61903;SDS011;47857;52.270;6.804;2024-03-06T07:55:20;103.10;;;46.15;;
61903;SDS011;47857;52.270;6.804;2024-03-06T07:57:47;99.18;;;46.35;;
61903;SDS011;47857;52.270;6.804;2024-03-06T08:00:13;97.40;;;46.80;;
61903;SDS011;47857;52.270;6.804;2024-03-06T08:02:45;97.53;;;45.58;;
61903;SDS011;47857;52.270;6.804;2024-03-06T08:05:19;97.63;;;46.17;;
61903;SDS011;47857;52.270;6.804;2024-03-06T08:07:46;104.22;;;47.25;;
61903;SDS011;47857;52.270;6.804;2024-03-06T08:10:12;96.95;;;47.85;;
61903;SDS011;47857;52.270;6.804;2024-03-06T08:12:41;99.82;;;46.75;;
61903;SDS011;47857;52.270;6.804;2024-03-06T08:15:10;101.00;;;48.67;;
61903;SDS011;47857;52.270;6.804;2024-03-06T08:17:37;104.70;;;49.63;;
61903;SDS011;47857;52.270;6.804;2024-03-06T08:20:04;96.40;;;45.53;;
61903;SDS011;47857;52.270;6.804;2024-03-06T08:22:39;89.00;;;43.40;;
61903;SDS011;47857;52.270;6.804;2024-03-06T08:25:06;80.43;;;42.33;;
61903;SDS011;47857;52.270;6.804;2024-03-06T08:27:35;84.53;;;41.97;;
61903;SDS011;47857;52.270;6.804;2024-03-06T08:30:04;80.00;;;42.90;;
61903;SDS011;47857;52.270;6.804;2024-03-06T08:32:31;81.93;;;41.85;;
61903;SDS011;47857;52.270;6.804;2024-03-06T08:35:00;76.97;;;41.17;;
61903;SDS011;47857;52.270;6.804;2024-03-06T08:37:27;78.80;;;40.75;;
61903;SDS011;47857;52.270;6.804;2024-03-06T08:39:53;96.43;;;44.20;;
61903;SDS011;47857;52.270;6.804;2024-03-06T08:42:18;92.78;;;44.97;;
61903;SDS011;47857;52.270;6.804;2024-03-06T08:44:44;99.78;;;45.13;;
61903;SDS011;47857;52.270;6.804;2024-03-06T08:47:11;83.50;;;42.15;;
61903;SDS011;47857;52.270;6.804;2024-03-06T08:49:37;91.95;;;43.40;;
61903;SDS011;47857;52.270;6.804;2024-03-06T08:52:02;83.15;;;41.85;;
61903;SDS011;47857;52.270;6.804;2024-03-06T08:54:28;78.80;;;41.65;;
61903;SDS011;47857;52.270;6.804;2024-03-06T08:56:56;82.20;;;40.83;;
61903;SDS011;47857;52.270;6.804;2024-03-06T08:59:23;82.70;;;43.55;;
61903;SDS011;47857;52.270;6.804;2024-03-06T09:01:51;75.65;;;40.72;;
61903;SDS011;47857;52.270;6.804;2024-03-06T09:04:19;74.82;;;37.75;;
61903;SDS011;47857;52.270;6.804;2024-03-06T09:06:45;77.15;;;40.38;;
61903;SDS011;47857;52.270;6.804;2024-03-06T09:09:10;74.20;;;39.63;;
61903;SDS011;47857;52.270;6.804;2024-03-06T09:11:36;70.18;;;38.25;;
61903;SDS011;47857;52.270;6.804;2024-03-06T09:14:01;74.82;;;38.85;;
61903;SDS011;47857;52.270;6.804;2024-03-06T09:16:27;71.97;;;38.28;;
61903;SDS011;47857;52.270;6.804;2024-03-06T09:18:52;76.35;;;39.85;;
61903;SDS011;47857;52.270;6.804;2024-03-06T09:21:18;77.53;;;39.08;;
61903;SDS011;47857;52.270;6.804;2024-03-06T09:23:45;73.22;;;38.88;;
61903;SDS011;47857;52.270;6.804;2024-03-06T09:26:10;64.28;;;35.30;;
61903;SDS011;47857;52.270;6.804;2024-03-06T09:28:36;65.82;;;37.03;;
61903;SDS011;47857;52.270;6.804;2024-03-06T09:31:01;65.38;;;35.60;;
61903;SDS011;47857;52.270;6.804;2024-03-06T09:33:27;65.30;;;35.60;;
61903;SDS011;47857;52.270;6.804;2024-03-06T09:35:52;76.28;;;38.45;;
61903;SDS011;47857;52.270;6.804;2024-03-06T09:38:18;67.63;;;37.30;;
61903;SDS011;47857;52.270;6.804;2024-03-06T09:40:43;65.93;;;36.38;;
61903;SDS011;47857;52.270;6.804;2024-03-06T09:43:09;65.15;;;37.10;;
61903;SDS011;47857;52.270;6.804;2024-03-06T09:45:35;65.43;;;35.47;;
61903;SDS011;47857;52.270;6.804;2024-03-06T09:48:01;65.32;;;36.15;;
61903;SDS011;47857;52.270;6.804;2024-03-06T09:50:27;66.93;;;36.70;;
61903;SDS011;47857;52.270;6.804;2024-03-06T09:52:55;69.40;;;36.85;;
61903;SDS011;47857;52.270;6.804;2024-03-06T09:55:21;66.50;;;37.13;;
61903;SDS011;47857;52.270;6.804;2024-03-06T09:57:47;69.90;;;37.90;;
61903;SDS011;47857;52.270;6.804;2024-03-06T10:00:13;71.97;;;38.92;;
61903;SDS011;47857;52.270;6.804;2024-03-06T10:03:12;62.33;;;34.80;;
61903;SDS011;47857;52.270;6.804;2024-03-06T10:05:31;63.72;;;34.95;;
61903;SDS011;47857;52.270;6.804;2024-03-06T10:07:59;65.38;;;35.30;;
61903;SDS011;47857;52.270;6.804;2024-03-06T10:10:25;65.65;;;34.55;;
61903;SDS011;47857;52.270;6.804;2024-03-06T10:12:52;69.15;;;36.05;;
61903;SDS011;47857;52.270;6.804;2024-03-06T10:15:18;67.35;;;36.30;;
61903;SDS011;47857;52.270;6.804;2024-03-06T10:17:44;66.93;;;35.30;;
61903;SDS011;47857;52.270;6.804;2024-03-06T10:20:19;64.07;;;35.55;;
61903;SDS011;47857;52.270;6.804;2024-03-06T10:22:54;61.13;;;35.10;;
61903;SDS011;47857;52.270;6.804;2024-03-06T10:25:20;61.72;;;34.33;;
61903;SDS011;47857;52.270;6.804;2024-03-06T10:28:07;63.35;;;35.05;;
61903;SDS011;47857;52.270;6.804;2024-03-06T10:30:34;61.55;;;34.85;;
61903;SDS011;47857;52.270;6.804;2024-03-06T10:33:07;70.20;;;36.55;;
61903;SDS011;47857;52.270;6.804;2024-03-06T10:35:33;59.78;;;32.85;;
61903;SDS011;47857;52.270;6.804;2024-03-06T10:38:03;61.22;;;33.47;;
61903;SDS011;47857;52.270;6.804;2024-03-06T10:40:32;60.20;;;33.88;;
61903;SDS011;47857;52.270;6.804;2024-03-06T10:42:59;61.83;;;34.55;;
61903;SDS011;47857;52.270;6.804;2024-03-06T10:45:48;62.05;;;35.20;;
61903;SDS011;47857;52.270;6.804;2024-03-06T10:48:11;56.13;;;32.33;;
61903;SDS011;47857;52.270;6.804;2024-03-06T10:50:38;58.95;;;32.25;;
61903;SDS011;47857;52.270;6.804;2024-03-06T10:53:14;55.20;;;32.33;;
61903;SDS011;47857;52.270;6.804;2024-03-06T10:55:42;59.03;;;32.33;;
61903;SDS011;47857;52.270;6.804;2024-03-06T10:58:09;57.08;;;31.23;;
61903;SDS011;47857;52.270;6.804;2024-03-06T11:00:39;60.30;;;32.97;;
61903;SDS011;47857;52.270;6.804;2024-03-06T11:03:05;56.55;;;32.47;;
61903;SDS011;47857;52.270;6.804;2024-03-06T11:05:36;59.45;;;32.97;;
61903;SDS011;47857;52.270;6.804;2024-03-06T11:08:14;56.67;;;32.03;;
61903;SDS011;47857;52.270;6.804;2024-03-06T11:10:42;57.80;;;32.92;;
61903;SDS011;47857;52.270;6.804;2024-03-06T11:15:46;64.97;;;32.28;;
61903;SDS011;47857;52.270;6.804;2024-03-06T11:18:46;59.28;;;31.95;;
61903;SDS011;47857;52.270;6.804;2024-03-06T11:23:30;63.47;;;32.03;;
61903;SDS011;47857;52.270;6.804;2024-03-06T11:25:59;66.68;;;34.33;;
61903;SDS011;47857;52.270;6.804;2024-03-06T11:28:26;59.92;;;32.13;;
61903;SDS011;47857;52.270;6.804;2024-03-06T11:30:56;58.92;;;32.58;;
61903;SDS011;47857;52.270;6.804;2024-03-06T11:38:40;60.95;;;32.60;;
61903;SDS011;47857;52.270;6.804;2024-03-06T11:41:06;62.03;;;33.28;;
61903;SDS011;47857;52.270;6.804;2024-03-06T11:43:41;59.97;;;33.30;;
61903;SDS011;47857;52.270;6.804;2024-03-06T11:48:36;58.13;;;31.92;;
61903;SDS011;47857;52.270;6.804;2024-03-06T11:51:02;65.07;;;33.08;;
61903;SDS011;47857;52.270;6.804;2024-03-06T11:53:30;56.25;;;31.17;;
61903;SDS011;47857;52.270;6.804;2024-03-06T11:55:58;62.38;;;32.92;;
61903;SDS011;47857;52.270;6.804;2024-03-06T11:58:24;57.20;;;30.92;;
61903;SDS011;47857;52.270;6.804;2024-03-06T12:00:50;56.83;;;31.60;;
61903;SDS011;47857;52.270;6.804;2024-03-06T12:03:16;61.17;;;31.63;;
61903;SDS011;47857;52.270;6.804;2024-03-06T12:05:42;58.63;;;32.63;;
61903;SDS011;47857;52.270;6.804;2024-03-06T12:08:07;52.33;;;30.75;;
61903;SDS011;47857;52.270;6.804;2024-03-06T12:10:36;57.00;;;31.73;;
61903;SDS011;47857;52.270;6.804;2024-03-06T12:13:03;56.75;;;31.52;;
61903;SDS011;47857;52.270;6.804;2024-03-06T12:15:29;53.65;;;28.92;;
61903;SDS011;47857;52.270;6.804;2024-03-06T12:17:54;57.08;;;30.50;;
61903;SDS011;47857;52.270;6.804;2024-03-06T12:20:20;57.75;;;31.52;;
61903;SDS011;47857;52.270;6.804;2024-03-06T12:22:49;55.05;;;29.85;;
61903;SDS011;47857;52.270;6.804;2024-03-06T12:25:21;54.58;;;30.27;;
61903;SDS011;47857;52.270;6.804;2024-03-06T12:27:48;53.88;;;30.85;;
61903;SDS011;47857;52.270;6.804;2024-03-06T12:30:18;52.53;;;31.08;;
61903;SDS011;47857;52.270;6.804;2024-03-06T12:32:59;52.20;;;29.55;;
61903;SDS011;47857;52.270;6.804;2024-03-06T12:35:29;54.92;;;29.52;;
61903;SDS011;47857;52.270;6.804;2024-03-06T12:37:55;51.90;;;30.65;;
61903;SDS011;47857;52.270;6.804;2024-03-06T12:40:20;53.80;;;29.33;;
61903;SDS011;47857;52.270;6.804;2024-03-06T12:42:46;51.08;;;28.95;;
61903;SDS011;47857;52.270;6.804;2024-03-06T12:45:12;52.05;;;29.52;;
61903;SDS011;47857;52.270;6.804;2024-03-06T12:47:42;53.13;;;28.98;;
61903;SDS011;47857;52.270;6.804;2024-03-06T12:50:08;44.72;;;26.05;;
61903;SDS011;47857;52.270;6.804;2024-03-06T12:52:34;50.20;;;28.85;;
61903;SDS011;47857;52.270;6.804;2024-03-06T12:55:00;48.00;;;27.40;;
61903;SDS011;47857;52.270;6.804;2024-03-06T12:57:26;46.25;;;26.42;;
61903;SDS011;47857;52.270;6.804;2024-03-06T12:59:52;46.00;;;25.80;;
61903;SDS011;47857;52.270;6.804;2024-03-06T13:02:18;42.60;;;26.13;;
61903;SDS011;47857;52.270;6.804;2024-03-06T13:04:44;42.80;;;25.40;;
61903;SDS011;47857;52.270;6.804;2024-03-06T13:07:09;45.03;;;26.40;;
61903;SDS011;47857;52.270;6.804;2024-03-06T13:09:36;47.65;;;25.60;;
61903;SDS011;47857;52.270;6.804;2024-03-06T13:12:01;39.95;;;23.85;;
61903;SDS011;47857;52.270;6.804;2024-03-06T13:14:30;40.30;;;23.23;;
61903;SDS011;47857;52.270;6.804;2024-03-06T13:16:56;37.20;;;22.45;;
61903;SDS011;47857;52.270;6.804;2024-03-06T13:19:21;36.92;;;21.13;;
61903;SDS011;47857;52.270;6.804;2024-03-06T13:21:47;33.55;;;20.83;;
61903;SDS011;47857;52.270;6.804;2024-03-06T13:24:13;39.15;;;22.63;;
61903;SDS011;47857;52.270;6.804;2024-03-06T13:26:38;33.33;;;19.88;;
61903;SDS011;47857;52.270;6.804;2024-03-06T13:29:05;32.75;;;20.60;;
61903;SDS011;47857;52.270;6.804;2024-03-06T13:31:31;31.02;;;19.52;;
61903;SDS011;47857;52.270;6.804;2024-03-06T13:33:59;33.67;;;20.00;;
61903;SDS011;47857;52.270;6.804;2024-03-06T13:36:25;32.20;;;19.25;;
61903;SDS011;47857;52.270;6.804;2024-03-06T13:38:51;36.67;;;21.23;;
61903;SDS011;47857;52.270;6.804;2024-03-06T13:41:17;31.85;;;19.98;;
61903;SDS011;47857;52.270;6.804;2024-03-06T13:43:42;34.33;;;20.40;;
61903;SDS011;47857;52.270;6.804;2024-03-06T13:46:08;34.53;;;21.33;;
61903;SDS011;47857;52.270;6.804;2024-03-06T13:48:33;36.97;;;20.65;;
61903;SDS011;47857;52.270;6.804;2024-03-06T13:50:59;34.38;;;20.55;;
61903;SDS011;47857;52.270;6.804;2024-03-06T13:53:25;34.33;;;20.67;;
61903;SDS011;47857;52.270;6.804;2024-03-06T13:55:50;35.70;;;21.20;;
61903;SDS011;47857;52.270;6.804;2024-03-06T13:58:17;33.92;;;20.38;;
61903;SDS011;47857;52.270;6.804;2024-03-06T14:00:42;33.17;;;20.45;;
61903;SDS011;47857;52.270;6.804;2024-03-06T14:03:09;34.50;;;20.17;;
61903;SDS011;47857;52.270;6.804;2024-03-06T14:05:37;33.15;;;20.40;;
61903;SDS011;47857;52.270;6.804;2024-03-06T14:08:04;35.38;;;21.33;;
61903;SDS011;47857;52.270;6.804;2024-03-06T14:10:29;36.33;;;20.95;;
61903;SDS011;47857;52.270;6.804;2024-03-06T14:12:59;33.33;;;20.50;;
61903;SDS011;47857;52.270;6.804;2024-03-06T14:15:25;34.55;;;20.27;;
61903;SDS011;47857;52.270;6.804;2024-03-06T14:17:53;33.38;;;19.38;;
61903;SDS011;47857;52.270;6.804;2024-03-06T14:20:19;33.22;;;19.50;;
61903;SDS011;47857;52.270;6.804;2024-03-06T14:22:45;32.03;;;20.27;;
61903;SDS011;47857;52.270;6.804;2024-03-06T14:25:11;38.88;;;20.73;;
61903;SDS011;47857;52.270;6.804;2024-03-06T14:27:37;31.73;;;20.67;;
61903;SDS011;47857;52.270;6.804;2024-03-06T14:30:03;33.80;;;20.92;;
61903;SDS011;47857;52.270;6.804;2024-03-06T14:32:29;31.80;;;20.67;;